createdAt,value
2024-01-24T00:00:52.104Z,101064.97
2024-01-24T00:03:18.610Z,101063.22
2024-01-24T00:05:45.926Z,101069.59
2024-01-24T00:08:12.268Z,101069.63
2024-01-24T00:10:38.629Z,101061.84
2024-01-24T00:13:05.070Z,101062.03
2024-01-24T00:15:31.478Z,101069.91
2024-01-24T00:17:57.962Z,101069.84
2024-01-24T00:20:24.561Z,101075.16
2024-01-24T00:22:50.936Z,101074.34
2024-01-24T00:25:17.427Z,101065.53
2024-01-24T00:27:44.155Z,101052.50
2024-01-24T00:30:10.969Z,101056.13
2024-01-24T00:32:37.426Z,101049.09
2024-01-24T00:35:04.965Z,101046.47
2024-01-24T00:37:31.437Z,101043.88
2024-01-24T00:39:57.844Z,101032.63
2024-01-24T00:42:24.172Z,101036.03
2024-01-24T00:44:52.377Z,101034.22
2024-01-24T00:47:20.142Z,101037.66
2024-01-24T00:49:46.787Z,101052.66
2024-01-24T00:52:13.708Z,101039.41
2024-01-24T00:54:40.153Z,101034.25
2024-01-24T00:57:06.568Z,101023.97
2024-01-24T00:59:32.939Z,101024.03
2024-01-24T01:01:59.361Z,101019.66
2024-01-24T01:04:26.317Z,101013.56
2024-01-24T01:06:52.719Z,101002.88
2024-01-24T01:09:19.085Z,100990.50
2024-01-24T01:11:45.470Z,100988.81
2024-01-24T01:14:11.867Z,100997.63
2024-01-24T01:16:38.233Z,100976.44
2024-01-24T01:19:04.679Z,100976.44
2024-01-24T01:21:31.160Z,100965.03
2024-01-24T01:23:57.563Z,100964.22
2024-01-24T01:26:23.952Z,100963.34
2024-01-24T01:28:50.405Z,100963.34
2024-01-24T01:31:16.893Z,100958.06
2024-01-24T01:33:43.308Z,100945.66
2024-01-24T01:36:17.976Z,100941.22
2024-01-24T01:38:49.541Z,100944.03
2024-01-24T01:41:16.420Z,100954.69
2024-01-24T01:43:44.621Z,100944.16
2024-01-24T01:46:15.683Z,100931.09
2024-01-24T01:48:42.117Z,100932.84
2024-01-24T01:51:08.613Z,100928.56
2024-01-24T01:53:39.539Z,100933.13
2024-01-24T01:56:09.824Z,100928.81
2024-01-24T01:58:38.259Z,100931.56
2024-01-24T02:01:08.500Z,100935.19
2024-01-24T02:03:37.552Z,100921.97
2024-01-24T02:06:05.116Z,100916.81
2024-01-24T02:08:35.243Z,100912.38
2024-01-24T02:11:02.622Z,100903.63
2024-01-24T02:13:31.236Z,100901.06
2024-01-24T02:15:57.626Z,100899.41
2024-01-24T02:18:24.043Z,100913.72
2024-01-24T02:20:51.367Z,100905.78
2024-01-24T02:23:19.480Z,100892.59
2024-01-24T02:25:45.935Z,100886.41
2024-01-24T02:28:12.292Z,100898.88
2024-01-24T02:30:38.678Z,100902.38
2024-01-24T02:33:05.306Z,100899.84
2024-01-24T02:35:31.716Z,100900.84
2024-01-24T02:37:58.090Z,100900.84
2024-01-24T02:40:24.451Z,100895.44
2024-01-24T02:42:50.897Z,100891.97
2024-01-24T02:45:17.343Z,100906.13
2024-01-24T02:47:43.797Z,100897.19
2024-01-24T02:50:14.078Z,100911.31
2024-01-24T02:52:41.395Z,100914.03
2024-01-24T02:55:08.436Z,100902.59
2024-01-24T02:57:35.032Z,100910.53
2024-01-24T03:00:01.747Z,100909.63
2024-01-24T03:02:28.102Z,100914.94
2024-01-24T03:04:54.485Z,100911.44
2024-01-24T03:07:21.003Z,100897.25
2024-01-24T03:09:47.526Z,100917.47
2024-01-24T03:12:14.049Z,100932.50
2024-01-24T03:14:40.478Z,100936.19
2024-01-24T03:17:06.881Z,100929.91
2024-01-24T03:19:33.436Z,100926.44
2024-01-24T03:21:59.987Z,100931.66
2024-01-24T03:24:26.465Z,100905.25
2024-01-24T03:26:52.864Z,100893.84
2024-01-24T03:29:20.668Z,100893.84
2024-01-24T03:31:47.113Z,100901.69
2024-01-24T03:34:13.922Z,100876.13
2024-01-24T03:36:40.535Z,100878.75
2024-01-24T03:39:10.451Z,100872.50
2024-01-24T03:41:38.199Z,100876.81
2024-01-24T03:44:05.324Z,100874.25
2024-01-24T03:46:31.807Z,100853.03
2024-01-24T03:48:58.279Z,100871.69
2024-01-24T03:51:25.470Z,100870.91
2024-01-24T03:53:51.841Z,100864.69
2024-01-24T03:56:18.397Z,100859.41
2024-01-24T03:58:44.724Z,100865.66
2024-01-24T04:01:11.815Z,100856.78
2024-01-24T04:03:38.373Z,100849.69
2024-01-24T04:06:04.923Z,100838.47
2024-01-24T04:08:31.295Z,100838.31
2024-01-24T04:10:57.727Z,100833.97
2024-01-24T04:13:25.333Z,100840.13
2024-01-24T04:15:51.718Z,100825.25
2024-01-24T04:18:18.258Z,100820.84
2024-01-24T04:20:44.693Z,100821.63
2024-01-24T04:23:11.065Z,100816.41
2024-01-24T04:25:37.461Z,100829.81
2024-01-24T04:28:04.187Z,100828.88
2024-01-24T04:30:30.686Z,100828.28
2024-01-24T04:32:57.260Z,100838.88
2024-01-24T04:35:23.741Z,100843.28
2024-01-24T04:37:50.259Z,100838.09
2024-01-24T04:40:16.717Z,100837.31
2024-01-24T04:42:43.256Z,100843.56
2024-01-24T04:45:11.362Z,100834.88
2024-01-24T04:47:39.612Z,100838.25
2024-01-24T04:50:06.913Z,100835.59
2024-01-24T04:52:33.339Z,100830.34
2024-01-24T04:54:59.682Z,100820.56
2024-01-24T04:57:26.134Z,100821.44
2024-01-24T04:59:56.220Z,100814.38
2024-01-24T05:02:24.077Z,100807.22
2024-01-24T05:04:50.629Z,100840.75
2024-01-24T05:07:17.259Z,100824.84
2024-01-24T05:09:43.801Z,100810.03
2024-01-24T05:12:10.849Z,100795.00
2024-01-24T05:14:37.281Z,100797.84
2024-01-24T05:17:03.736Z,100781.13
2024-01-24T05:19:30.194Z,100779.44
2024-01-24T05:21:57.416Z,100799.84
2024-01-24T05:24:23.864Z,100793.72
2024-01-24T05:26:50.238Z,100809.81
2024-01-24T05:29:16.580Z,100803.59
2024-01-24T05:31:42.895Z,100803.75
2024-01-24T05:34:09.555Z,100787.84
2024-01-24T05:36:37.040Z,100783.53
2024-01-24T05:39:07.661Z,100763.28
2024-01-24T05:41:35.072Z,100767.75
2024-01-24T05:44:01.410Z,100773.16
2024-01-24T05:46:27.754Z,100761.81
2024-01-24T05:48:54.196Z,100758.31
2024-01-24T05:51:20.769Z,100742.41
2024-01-24T05:53:47.132Z,100729.25
2024-01-24T05:56:13.517Z,100726.66
2024-01-24T05:58:40.050Z,100748.81
2024-01-24T06:01:09.198Z,100757.72
2024-01-24T06:03:35.687Z,100760.44
2024-01-24T06:06:02.488Z,100733.88
2024-01-24T06:08:30.570Z,100751.91
2024-01-24T06:10:56.980Z,100728.06
2024-01-24T06:13:23.652Z,100733.34
2024-01-24T06:15:51.567Z,100735.13
2024-01-24T06:18:18.822Z,100735.31
2024-01-24T06:20:48.244Z,100744.16
2024-01-24T06:23:14.677Z,100731.88
2024-01-24T06:25:41.926Z,100744.38
2024-01-24T06:28:08.300Z,100743.59
2024-01-24T06:30:34.776Z,100743.59
2024-01-24T06:33:01.444Z,100737.41
2024-01-24T06:35:27.842Z,100751.47
2024-01-24T06:37:56.211Z,100753.97
2024-01-24T06:40:22.794Z,100754.81
2024-01-24T06:42:49.607Z,100740.59
2024-01-24T06:45:16.116Z,100745.94
2024-01-24T06:47:42.686Z,100747.69
2024-01-24T06:50:13.458Z,100763.56
2024-01-24T06:52:41.324Z,100774.16
2024-01-24T06:55:09.561Z,100781.25
2024-01-24T06:57:36.068Z,100782.06
2024-01-24T07:00:05.767Z,100786.41
2024-01-24T07:02:32.356Z,100797.00
2024-01-24T07:04:58.968Z,100798.63
2024-01-24T07:07:26.495Z,100810.84
2024-01-24T07:09:53.236Z,100793.13
2024-01-24T07:12:21.594Z,100793.06
2024-01-24T07:14:52.571Z,100818.69
2024-01-24T07:17:19.667Z,100815.28
2024-01-24T07:19:46.205Z,100821.25
2024-01-24T07:22:12.742Z,100831.09
2024-01-24T07:24:39.190Z,100822.94
2024-01-24T07:27:05.648Z,100838.09
2024-01-24T07:29:32.196Z,100816.34
2024-01-24T07:31:58.648Z,100821.13
2024-01-24T07:34:25.644Z,100836.41
2024-01-24T07:36:52.180Z,100833.00
2024-01-24T07:39:18.638Z,100815.16
2024-01-24T07:41:45.400Z,100822.34
2024-01-24T07:44:11.797Z,100818.16
2024-01-24T07:46:44.583Z,100829.53
2024-01-24T07:49:11.614Z,100837.66
2024-01-24T07:51:38.259Z,100842.13
2024-01-24T07:54:05.544Z,100858.97
2024-01-24T07:56:32.367Z,100863.44
2024-01-24T07:58:58.899Z,100846.56
2024-01-24T08:01:25.747Z,100849.25
2024-01-24T08:03:52.940Z,100870.47
2024-01-24T08:06:19.658Z,100848.34
2024-01-24T08:08:46.195Z,100838.56
2024-01-24T08:11:13.298Z,100844.88
2024-01-24T08:13:39.850Z,100850.06
2024-01-24T08:16:08.642Z,100864.97
2024-01-24T08:18:35.271Z,100880.00
2024-01-24T08:21:03.221Z,100878.31
2024-01-24T08:23:38.367Z,100881.88
2024-01-24T08:26:13.253Z,100895.13
2024-01-24T08:28:40.966Z,100901.47
2024-01-24T08:31:07.396Z,100896.28
2024-01-24T08:33:34.020Z,100899.25
2024-01-24T08:36:00.447Z,100894.22
2024-01-24T08:38:26.930Z,100889.28
2024-01-24T08:40:53.345Z,100898.31
2024-01-24T08:43:19.711Z,100907.31
2024-01-24T08:45:48.816Z,100930.50
2024-01-24T08:48:18.879Z,100912.94
2024-01-24T08:50:45.403Z,100914.72
2024-01-24T08:53:11.767Z,100940.50
2024-01-24T08:55:38.240Z,100917.38
2024-01-24T08:58:04.763Z,100935.03
2024-01-24T09:00:31.273Z,100945.63
2024-01-24T09:02:58.551Z,100942.09
2024-01-24T09:05:25.116Z,100951.81
2024-01-24T09:07:51.563Z,100950.84
2024-01-24T09:10:17.939Z,100943.59
2024-01-24T09:12:44.395Z,100967.47
2024-01-24T09:15:11.050Z,100986.22
2024-01-24T09:17:38.107Z,100980.72
2024-01-24T09:20:05.423Z,100989.41
2024-01-24T09:22:32.211Z,100985.78
2024-01-24T09:24:58.921Z,100972.47
2024-01-24T09:27:25.521Z,101005.28
2024-01-24T09:29:51.881Z,101002.63
2024-01-24T09:32:18.312Z,101035.44
2024-01-24T09:34:45.014Z,101022.16
2024-01-24T09:37:12.291Z,101024.94
2024-01-24T09:39:38.676Z,101028.50
2024-01-24T09:42:16.053Z,101040.22
2024-01-24T09:44:47.593Z,101039.50
2024-01-24T09:47:14.720Z,101043.19
2024-01-24T09:49:41.205Z,101030.91
2024-01-24T09:52:09.215Z,101046.97
2024-01-24T09:54:40.051Z,101039.84
2024-01-24T09:57:07.684Z,101047.84
2024-01-24T09:59:34.250Z,101063.81
2024-01-24T10:02:00.731Z,101066.41
2024-01-24T10:04:27.580Z,101065.56
2024-01-24T10:06:54.765Z,101065.44
2024-01-24T10:09:21.965Z,101053.91
2024-01-24T10:11:48.360Z,101041.53
2024-01-24T10:14:15.665Z,101069.06
2024-01-24T10:16:42.804Z,101065.56
2024-01-24T10:19:09.519Z,101088.66
2024-01-24T10:21:36.297Z,101081.56
2024-01-24T10:24:03.529Z,101093.16
2024-01-24T10:26:30.893Z,101080.53
2024-01-24T10:28:57.466Z,101068.16
2024-01-24T10:31:25.002Z,101083.28
2024-01-24T10:33:58.910Z,101085.81
2024-01-24T10:36:32.350Z,101110.72
2024-01-24T10:39:02.684Z,101114.22
2024-01-24T10:41:31.347Z,101111.69
2024-01-24T10:44:02.821Z,101121.53
2024-01-24T10:46:30.287Z,101117.88
2024-01-24T10:48:57.332Z,101102.81
2024-01-24T10:51:27.154Z,101119.69
2024-01-24T10:53:55.473Z,101102.03
2024-01-24T10:56:24.792Z,101122.50
2024-01-24T10:58:51.229Z,101132.28
2024-01-24T11:01:17.987Z,101131.25
2024-01-24T11:03:48.545Z,101122.34
2024-01-24T11:06:17.817Z,101158.50
2024-01-24T11:08:56.534Z,101126.47
2024-01-24T11:11:24.955Z,101136.94
2024-01-24T11:13:52.062Z,101153.69
2024-01-24T11:16:31.668Z,101155.66
2024-01-24T11:19:02.631Z,101140.59
2024-01-24T11:21:31.979Z,101136.25
2024-01-24T11:23:59.750Z,101142.50
2024-01-24T11:26:26.071Z,101128.31
2024-01-24T11:29:13.817Z,101142.50
2024-01-24T11:31:42.165Z,101143.28
2024-01-24T11:34:09.601Z,101144.19
2024-01-24T11:36:53.524Z,101146.91
2024-01-24T11:39:39.041Z,101137.94
2024-01-24T11:42:25.010Z,101142.34
2024-01-24T11:44:54.315Z,101131.84
2024-01-24T11:47:23.467Z,101162.88
2024-01-24T11:49:50.870Z,101162.16
2024-01-24T11:52:23.539Z,101150.56
2024-01-24T11:54:53.768Z,101163.06
2024-01-24T11:57:20.423Z,101173.78
2024-01-24T11:59:47.016Z,101174.88
2024-01-24T12:02:13.473Z,101184.63
2024-01-24T12:04:39.988Z,101174.72
2024-01-24T12:07:08.330Z,101176.53
2024-01-24T12:09:34.827Z,101163.09
2024-01-24T12:12:01.186Z,101173.72
2024-01-24T12:14:27.618Z,101191.38
2024-01-24T12:16:54.556Z,101213.59
2024-01-24T12:19:22.202Z,101201.13
2024-01-24T12:21:48.898Z,101203.81
2024-01-24T12:24:15.958Z,101192.22
2024-01-24T12:26:42.958Z,101198.50
2024-01-24T12:29:10.074Z,101215.41
2024-01-24T12:31:39.590Z,101219.06
2024-01-24T12:34:09.126Z,101216.53
2024-01-24T12:36:35.748Z,101215.47
2024-01-24T12:39:05.453Z,101229.69
2024-01-24T12:41:33.097Z,101219.72
2024-01-24T12:43:59.505Z,101226.56
2024-01-24T12:46:26.165Z,101228.19
2024-01-24T12:48:53.218Z,101231.91
2024-01-24T12:51:19.771Z,101222.97
2024-01-24T12:53:46.265Z,101215.75
2024-01-24T12:56:16.978Z,101237.81
2024-01-24T12:58:46.354Z,101237.88
2024-01-24T13:01:12.898Z,101241.25
2024-01-24T13:03:40.440Z,101239.44
2024-01-24T13:06:07.335Z,101241.25
2024-01-24T13:08:33.884Z,101246.56
2024-01-24T13:11:00.666Z,101248.47
2024-01-24T13:13:27.095Z,101253.72
2024-01-24T13:15:54.794Z,101254.59
2024-01-24T13:18:21.830Z,101261.69
2024-01-24T13:20:48.600Z,101272.91
2024-01-24T13:23:16.020Z,101283.59
2024-01-24T13:25:42.655Z,101275.66
2024-01-24T13:28:11.069Z,101273.81
2024-01-24T13:30:39.425Z,101266.72
2024-01-24T13:33:06.815Z,101276.53
2024-01-24T13:35:33.467Z,101263.28
2024-01-24T13:38:00.551Z,101267.84
2024-01-24T13:40:26.993Z,101270.50
2024-01-24T13:42:53.890Z,101278.28
2024-01-24T13:45:20.417Z,101280.78
2024-01-24T13:47:46.921Z,101291.44
2024-01-24T13:50:13.553Z,101290.22
2024-01-24T13:52:40.743Z,101270.47
2024-01-24T13:55:09.143Z,101280.19
2024-01-24T13:57:38.136Z,101277.59
2024-01-24T14:00:11.388Z,101290.34
2024-01-24T14:02:37.946Z,101282.81
2024-01-24T14:05:05.209Z,101278.53
2024-01-24T14:07:31.768Z,101282.00
2024-01-24T14:09:58.381Z,101293.41
2024-01-24T14:12:24.837Z,101286.31
2024-01-24T14:14:52.656Z,101299.41
2024-01-24T14:17:20.413Z,101283.31
2024-01-24T14:19:47.200Z,101284.22
2024-01-24T14:22:13.832Z,101293.09
2024-01-24T14:24:40.279Z,101294.16
2024-01-24T14:27:06.875Z,101279.91
2024-01-24T14:29:33.239Z,101286.16
2024-01-24T14:31:59.628Z,101307.28
2024-01-24T14:34:26.100Z,101314.41
2024-01-24T14:36:55.975Z,101322.25
2024-01-24T14:39:30.506Z,101325.88
2024-01-24T14:41:57.197Z,101320.56
2024-01-24T14:44:23.640Z,101327.63
2024-01-24T14:46:50.048Z,101324.00
2024-01-24T14:49:17.054Z,101336.38
2024-01-24T14:51:46.075Z,101316.03
2024-01-24T14:54:12.505Z,101322.22
2024-01-24T14:56:39.775Z,101335.44
2024-01-24T14:59:06.306Z,101338.84
2024-01-24T15:01:32.733Z,101343.31
2024-01-24T15:03:59.240Z,101343.91
2024-01-24T15:06:25.814Z,101344.53
2024-01-24T15:08:52.276Z,101351.47
2024-01-24T15:11:18.701Z,101339.75
2024-01-24T15:13:45.153Z,101341.19
2024-01-24T15:16:11.803Z,101364.06
2024-01-24T15:18:39.461Z,101359.53
2024-01-24T15:21:09.054Z,101353.97
2024-01-24T15:23:39.754Z,101368.75
2024-01-24T15:26:06.720Z,101364.19
2024-01-24T15:28:35.587Z,101365.00
2024-01-24T15:31:02.600Z,101382.38
2024-01-24T15:33:32.700Z,101381.25
2024-01-24T15:35:59.429Z,101392.66
2024-01-24T15:38:26.479Z,101399.66
2024-01-24T15:40:53.093Z,101399.56
2024-01-24T15:43:19.883Z,101408.31
2024-01-24T15:45:46.554Z,101406.91
2024-01-24T15:48:15.287Z,101407.41
2024-01-24T15:50:42.085Z,101412.00
2024-01-24T15:53:08.636Z,101413.66
2024-01-24T15:55:35.228Z,101415.31
2024-01-24T15:58:01.756Z,101433.66
2024-01-24T16:00:28.205Z,101425.56
2024-01-24T16:02:55.105Z,101429.88
2024-01-24T16:05:42.733Z,101452.50
2024-01-24T16:08:09.638Z,101451.47
2024-01-24T16:10:36.120Z,101459.22
2024-01-24T16:13:04.009Z,101460.00
2024-01-24T16:15:30.704Z,101464.56
2024-01-24T16:17:57.335Z,101452.94
2024-01-24T16:20:23.717Z,101471.50
2024-01-24T16:22:55.316Z,101481.31
2024-01-24T16:25:24.651Z,101481.28
2024-01-24T16:27:51.507Z,101481.22
2024-01-24T16:30:18.066Z,101485.25
2024-01-24T16:32:45.987Z,101479.69
2024-01-24T16:35:14.767Z,101485.59
2024-01-24T16:37:41.272Z,101498.66
2024-01-24T16:40:09.509Z,101497.28
2024-01-24T16:42:36.019Z,101504.50
2024-01-24T16:45:03.400Z,101522.53
2024-01-24T16:47:29.803Z,101523.31
2024-01-24T16:49:56.448Z,101523.22
2024-01-24T16:52:23.975Z,101537.78
2024-01-24T16:54:51.151Z,101535.91
2024-01-24T16:57:17.827Z,101530.66
2024-01-24T16:59:44.285Z,101530.66
2024-01-24T17:02:12.039Z,101538.56
2024-01-24T17:04:39.515Z,101540.25
2024-01-24T17:07:06.277Z,101531.31
2024-01-24T17:09:33.187Z,101524.97
2024-01-24T17:11:59.654Z,101526.50
2024-01-24T17:14:26.131Z,101527.31
2024-01-24T17:16:52.545Z,101532.31
2024-01-24T17:19:19.105Z,101519.59
2024-01-24T17:21:45.609Z,101535.63
2024-01-24T17:24:13.586Z,101539.06
2024-01-24T17:26:40.049Z,101542.25
2024-01-24T17:29:06.387Z,101537.53
2024-01-24T17:31:32.887Z,101536.31
2024-01-24T17:33:59.496Z,101540.78
2024-01-24T17:36:26.118Z,101550.19
2024-01-24T17:38:52.603Z,101540.88
2024-01-24T17:41:18.954Z,101557.53
2024-01-24T17:43:45.441Z,101557.94
2024-01-24T17:46:12.262Z,101554.31
2024-01-24T17:48:40.274Z,101574.63
2024-01-24T17:51:07.720Z,101564.06
2024-01-24T17:53:34.179Z,101573.13
2024-01-24T17:56:00.922Z,101569.75
2024-01-24T17:58:27.340Z,101572.56
2024-01-24T18:00:53.847Z,101575.66
2024-01-24T18:03:20.350Z,101569.25
2024-01-24T18:05:46.842Z,101573.19
2024-01-24T18:08:13.427Z,101571.22
2024-01-24T18:10:40.276Z,101580.00
2024-01-24T18:13:06.816Z,101587.53
2024-01-24T18:15:33.436Z,101587.34
2024-01-24T18:18:01.476Z,101578.97
2024-01-24T18:20:32.283Z,101593.66
2024-01-24T18:23:02.279Z,101597.63
2024-01-24T18:25:29.023Z,101606.22
2024-01-24T18:27:55.447Z,101618.81
2024-01-24T18:30:24.787Z,101625.88
2024-01-24T18:32:51.403Z,101629.78
2024-01-24T18:35:18.314Z,101626.44
2024-01-24T18:37:44.703Z,101636.28
2024-01-24T18:40:12.122Z,101637.19
2024-01-24T18:42:41.709Z,101634.34
2024-01-24T18:45:13.486Z,101633.41
2024-01-24T18:47:40.460Z,101647.69
2024-01-24T18:50:08.771Z,101652.06
2024-01-24T18:52:35.403Z,101644.88
2024-01-24T18:55:01.853Z,101655.66
2024-01-24T18:57:29.011Z,101658.66
2024-01-24T18:59:55.620Z,101642.16
2024-01-24T19:02:22.341Z,101649.50
2024-01-24T19:04:49.170Z,101649.31
2024-01-24T19:07:16.909Z,101652.50
2024-01-24T19:09:44.586Z,101660.94
2024-01-24T19:12:11.043Z,101665.06
2024-01-24T19:14:39.490Z,101663.97
2024-01-24T19:17:06.021Z,101648.66
2024-01-24T19:19:32.484Z,101629.41
2024-01-24T19:21:58.885Z,101636.81
2024-01-24T19:24:25.316Z,101636.75
2024-01-24T19:26:51.961Z,101641.78
2024-01-24T19:29:19.398Z,101646.78
2024-01-24T19:31:45.929Z,101638.56
2024-01-24T19:34:12.520Z,101639.63
2024-01-24T19:36:39.712Z,101650.84
2024-01-24T19:39:06.180Z,101651.88
2024-01-24T19:41:32.599Z,101639.31
2024-01-24T19:43:59.235Z,101647.94
2024-01-24T19:46:25.781Z,101634.72
2024-01-24T19:48:52.830Z,101644.50
2024-01-24T19:51:19.508Z,101635.38
2024-01-24T19:53:46.601Z,101635.38
2024-01-24T19:56:13.059Z,101622.25
2024-01-24T19:58:40.348Z,101628.44
2024-01-24T20:01:06.932Z,101633.72
2024-01-24T20:03:33.607Z,101626.38
2024-01-24T20:06:03.845Z,101625.28
2024-01-24T20:08:30.853Z,101628.44
2024-01-24T20:10:57.936Z,101638.50
2024-01-24T20:13:24.453Z,101640.66
2024-01-24T20:15:51.149Z,101633.91
2024-01-24T20:18:20.388Z,101636.63
2024-01-24T20:20:47.034Z,101635.78
2024-01-24T20:23:13.520Z,101626.38
2024-01-24T20:25:40.049Z,101630.25
2024-01-24T20:28:06.863Z,101634.06
2024-01-24T20:30:33.336Z,101634.00
2024-01-24T20:33:04.392Z,101627.69
2024-01-24T20:35:32.070Z,101637.16
2024-01-24T20:37:59.427Z,101637.78
2024-01-24T20:40:25.818Z,101635.94
2024-01-24T20:42:52.475Z,101606.34
2024-01-24T20:45:18.881Z,101629.91
2024-01-24T20:47:45.367Z,101616.44
2024-01-24T20:50:11.946Z,101616.19
2024-01-24T20:52:38.510Z,101621.72
2024-01-24T20:55:05.458Z,101632.56
2024-01-24T20:57:34.111Z,101633.34
2024-01-24T21:00:01.118Z,101634.88
2024-01-24T21:02:27.562Z,101639.56
2024-01-24T21:04:54.863Z,101632.06
2024-01-24T21:07:21.612Z,101636.38
2024-01-24T21:09:48.055Z,101636.44
2024-01-24T21:12:14.449Z,101630.28
2024-01-24T21:14:40.991Z,101634.22
2024-01-24T21:17:07.436Z,101632.84
2024-01-24T21:19:34.018Z,101627.16
2024-01-24T21:22:00.692Z,101619.81
2024-01-24T21:24:27.323Z,101624.09
2024-01-24T21:26:53.935Z,101634.28
2024-01-24T21:29:20.601Z,101638.72
2024-01-24T21:31:47.326Z,101636.19
2024-01-24T21:34:14.198Z,101631.16
2024-01-24T21:36:45.123Z,101637.34
2024-01-24T21:39:14.940Z,101642.44
2024-01-24T21:41:41.376Z,101623.59
2024-01-24T21:44:07.701Z,101633.22
2024-01-24T21:46:36.534Z,101629.16
2024-01-24T21:49:03.473Z,101616.03
2024-01-24T21:51:29.973Z,101619.78
2024-01-24T21:53:56.592Z,101626.13
2024-01-24T21:56:23.064Z,101627.63
2024-01-24T21:58:50.470Z,101611.25
2024-01-24T22:01:17.024Z,101627.16
2024-01-24T22:03:43.506Z,101621.50
2024-01-24T22:06:09.915Z,101618.63
2024-01-24T22:08:36.383Z,101633.56
2024-01-24T22:11:02.988Z,101632.25
2024-01-24T22:13:29.333Z,101629.16
2024-01-24T22:15:57.269Z,101612.13
2024-01-24T22:18:29.935Z,101631.50
2024-01-24T22:21:03.297Z,101642.53
2024-01-24T22:23:29.672Z,101645.84
2024-01-24T22:25:56.061Z,101641.72
2024-01-24T22:28:22.680Z,101646.09
2024-01-24T22:30:49.188Z,101663.66
2024-01-24T22:33:15.861Z,101664.63
2024-01-24T22:35:43.690Z,101663.66
2024-01-24T22:38:10.119Z,101667.19
2024-01-24T22:40:36.587Z,101669.75
2024-01-24T22:43:03.090Z,101657.59
2024-01-24T22:45:29.481Z,101662.13
2024-01-24T22:47:56.096Z,101663.00
2024-01-24T22:50:22.791Z,101671.31
2024-01-24T22:52:49.334Z,101679.81
2024-01-24T22:55:15.928Z,101679.56
2024-01-24T22:57:48.941Z,101681.25
2024-01-24T23:00:20.151Z,101678.59
2024-01-24T23:02:46.656Z,101688.59
2024-01-24T23:05:14.343Z,101694.34
2024-01-24T23:07:41.364Z,101690.13
2024-01-24T23:10:08.826Z,101686.59
2024-01-24T23:12:36.333Z,101697.59
2024-01-24T23:15:03.619Z,101684.97
2024-01-24T23:17:30.034Z,101674.00
2024-01-24T23:19:58.194Z,101675.19
2024-01-24T23:22:25.228Z,101674.91
2024-01-24T23:24:51.727Z,101664.69
2024-01-24T23:27:18.189Z,101662.00
2024-01-24T23:29:44.553Z,101670.69
2024-01-24T23:32:11.134Z,101664.56
2024-01-24T23:34:37.638Z,101672.75
2024-01-24T23:37:04.268Z,101662.00
2024-01-24T23:39:30.695Z,101664.97
2024-01-24T23:41:57.050Z,101659.03
2024-01-24T23:44:23.399Z,101655.50
2024-01-24T23:46:49.779Z,101628.06
2024-01-24T23:49:16.412Z,101638.53
2024-01-24T23:51:43.089Z,101638.69
2024-01-24T23:54:11.160Z,101632.09
2024-01-24T23:56:37.497Z,101610.34
2024-01-24T23:59:03.860Z,101626.19
